KHHG

Huntington Municipal Airport

Huntington, Indiana, USA
METAR KHHG 231615Z AUTO 24009KT 10SM OVC005 09/09 A3015 RMK AO2 T00910085 TSNO
Observed Flight Rules
Feb-23 @ 16:15 UTC (24 minutes ago) Instrument Flight Rules
Wind Visibility Clouds
240° at 9 knots 10 miles
  • Overcast at 500' AGL
Temperatures Readings
Current 9°C / 48°F
Dewpoint 9°C / 48°F
Humidity 100%
Altimeter 30.15" Hg
Pressure 1021 hPa
Elevation 246
METAR KHHG 231615Z AUTO 24009KT 10SM OVC005 09/09 A3015 RMK AO2 T00910085 TSNO
Observed Flight Rules
Feb-23 @ 16:15 UTC
(24 minutes ago)
IFR
Wind Visibility
240° at 9 knots 10 miles
Clouds
  • Overcast at 500' AGL
Temperature Dewpoint
9°C / 48°F 9°C / 48°F
Humidity Altimeter Pressure
100% 30.15" Hg 1021 hPa